메인 페이지
METAR-TAF:

METAR-TAF

공항 :

롱위에아르뷔엔, 노르웨이

위도: 78-15N, 경도: 015-28E, 고도: 2m

현재 날씨관측

예보는 23분 전, 09:20시(UTC)에 발표되었습니다.
무풍
온도 -10°C
습도 85%
기압 1014 hPa
시정 10km 이상
고도 100ft 상공 구름 조금
시계 내 안개

METAR: ENSB 210920Z 00000KT 9999 VCFG FEW001 M10/M12 Q1014 TEMPO 0500 FZFG VV001 RMK WIND 1400FT VRB02KT

시각: 10:43 (09:43 UTC)

예보

예보 대상 시간: 21일 06시부터 22일 06시까지 (UTC)
동남동8kt
시정 10km 이상
고도 500ft 상공 구름 보통
확률 30% :
일시적
21일 06시부터 21일 12시까지 (UTC)
시정: 0500m
고도 100ft 상공
어는 안개

TAF: ENSB 2106/2206 12008KT 9999 SCT005 PROB30 TEMPO 2106/2112 0500 FZFG VV001

4,000개 이상의 공항 관측 자료 및 예보 (METAR 및 TAF 보고).

지도상에서 검색 가능한 기상관측소가 노란 점과 빨간 점으로 표시되어 있습니다.

기상관측소 명을 보려면 표시 위로 마우스를 이동하세요.

날씨 관측과 예보를 보려면 클릭하세요.

지도 변경 : 확대하려면 엑스 표시가 있는 녹색 버튼, 축소하려면 빼기 표시가 있는 녹색 버튼, 다음 페이지의 지도를 보려면 녹색 화살표를 클릭하세요.


METAR-TAF: